Terminal Aerodrome Forecast
Issued by NWS

Home | Current Version | Previous Version | Text Only | Print | Product List | Glossary On
Versions: 1 2 3 4 5 6 7 8 9 10 11 12 13 14 15 16 17 18 19 20 21
000
FTUS43 KDVN 292300
TAFCID
TAF
KCID 292320Z 3000/3024 31018G25KT P6SM SKC
     FM300130 29013KT P6SM SKC
     FM300500 27008KT P6SM SKC
     FM301500 25012G19KT P6SM SKC=

USA.gov is the U.S. government's official web portal to all federal, state and local government web resources and services.